createdAt,value
2022-09-06T00:00:18.945Z,23.75
2022-09-06T00:02:46.011Z,23.61
2022-09-06T00:05:13.427Z,23.50
2022-09-06T00:07:40.856Z,23.43
2022-09-06T00:10:09.341Z,23.32
2022-09-06T00:12:37.583Z,23.25
2022-09-06T00:15:06.389Z,23.14
2022-09-06T00:17:34.388Z,23.09
2022-09-06T00:20:02.414Z,23.00
2022-09-06T00:22:29.375Z,22.90
2022-09-06T00:24:56.324Z,22.76
2022-09-06T00:27:23.736Z,22.69
2022-09-06T00:29:50.528Z,22.61
2022-09-06T00:32:17.701Z,22.52
2022-09-06T00:34:44.524Z,22.44
2022-09-06T00:37:11.293Z,22.38
2022-09-06T00:39:38.143Z,22.35
2022-09-06T00:42:10.118Z,22.34
2022-09-06T00:44:37.895Z,22.35
2022-09-06T00:47:06.166Z,22.31
2022-09-06T00:49:51.191Z,22.28
2022-09-06T00:52:19.758Z,22.26
2022-09-06T00:54:48.875Z,22.24
2022-09-06T00:57:17.900Z,22.25
2022-09-06T00:59:48.179Z,22.24
2022-09-06T01:02:15.233Z,22.21
2022-09-06T01:04:45.093Z,22.24
2022-09-06T01:08:06.385Z,22.19
2022-09-06T01:11:15.087Z,22.14
2022-09-06T01:14:25.063Z,22.09
2022-09-06T01:17:19.506Z,22.07
2022-09-06T01:20:20.009Z,22.08
2022-09-06T01:23:08.799Z,22.05
2022-09-06T01:26:02.534Z,22.00
2022-09-06T01:28:46.017Z,21.98
2022-09-06T01:31:50.211Z,21.94
2022-09-06T01:34:38.491Z,21.89
2022-09-06T01:37:20.116Z,21.87
2022-09-06T01:39:47.003Z,21.81
2022-09-06T01:42:23.696Z,21.80
2022-09-06T01:45:07.720Z,21.74
2022-09-06T01:48:09.692Z,21.61
2022-09-06T01:50:55.554Z,21.52
2022-09-06T01:53:46.638Z,21.49
2022-09-06T01:56:38.200Z,21.46
2022-09-06T01:59:44.956Z,21.41
2022-09-06T02:02:45.814Z,21.40
2022-09-06T02:05:33.167Z,21.34
2022-09-06T02:08:09.704Z,21.28
2022-09-06T02:10:56.979Z,21.27
2022-09-06T02:13:30.185Z,21.24
2022-09-06T02:16:05.165Z,21.24
2022-09-06T02:18:38.081Z,21.18
2022-09-06T02:21:08.833Z,21.17
2022-09-06T02:23:40.522Z,21.16
2022-09-06T02:26:18.385Z,21.15
2022-09-06T02:28:45.398Z,21.12
2022-09-06T02:31:23.693Z,21.16
2022-09-06T02:33:51.969Z,21.14
2022-09-06T02:36:19.758Z,21.12
2022-09-06T02:38:46.663Z,21.12
2022-09-06T02:41:18.394Z,21.12
2022-09-06T02:43:45.368Z,21.12
2022-09-06T02:46:12.610Z,21.09
2022-09-06T02:48:39.666Z,21.04
2022-09-06T02:51:09.377Z,21.04
2022-09-06T02:53:36.651Z,21.02
2022-09-06T02:56:03.788Z,20.95
2022-09-06T02:58:31.034Z,20.93
2022-09-06T03:00:57.939Z,20.84
2022-09-06T03:03:25.125Z,20.80
2022-09-06T03:05:53.525Z,20.77
2022-09-06T03:08:23.425Z,20.73
2022-09-06T03:10:56.174Z,20.71
2022-09-06T03:13:24.655Z,20.72
2022-09-06T03:15:55.149Z,20.72
2022-09-06T03:18:23.392Z,20.71
2022-09-06T03:20:52.913Z,20.69
2022-09-06T03:23:22.409Z,20.70
2022-09-06T03:25:49.902Z,20.65
2022-09-06T03:28:18.378Z,20.65
2022-09-06T03:30:47.952Z,20.54
2022-09-06T03:33:15.186Z,20.48
2022-09-06T03:35:52.880Z,20.41
2022-09-06T03:38:20.396Z,20.32
2022-09-06T03:40:49.156Z,20.28
2022-09-06T03:43:18.337Z,20.25
2022-09-06T03:45:48.199Z,20.23
2022-09-06T03:48:16.730Z,20.24
2022-09-06T03:50:46.566Z,20.21
2022-09-06T03:53:15.017Z,20.21
2022-09-06T03:55:46.976Z,20.22
2022-09-06T03:58:14.554Z,20.22
2022-09-06T04:00:42.019Z,20.22
2022-09-06T04:03:08.959Z,20.21
2022-09-06T04:05:35.924Z,20.21
2022-09-06T04:08:03.719Z,20.18
2022-09-06T04:10:30.666Z,20.17
2022-09-06T04:12:57.680Z,20.16
2022-09-06T04:15:24.554Z,20.13
2022-09-06T04:17:51.396Z,20.07
2022-09-06T04:20:18.235Z,20.06
2022-09-06T04:22:45.031Z,20.06
2022-09-06T04:25:13.823Z,20.00
2022-09-06T04:27:40.744Z,20.00
2022-09-06T04:30:08.667Z,19.99
2022-09-06T04:32:35.481Z,19.96
2022-09-06T04:35:02.356Z,19.94
2022-09-06T04:37:29.241Z,19.95
2022-09-06T04:39:56.055Z,19.94
2022-09-06T04:42:22.852Z,19.95
2022-09-06T04:44:49.647Z,19.95
2022-09-06T04:47:18.181Z,19.96
2022-09-06T04:49:45.871Z,19.97
2022-09-06T04:52:18.860Z,20.00
2022-09-06T04:54:45.919Z,19.96
2022-09-06T04:57:12.718Z,19.94
2022-09-06T04:59:39.510Z,19.96
2022-09-06T05:02:06.367Z,19.95
2022-09-06T05:04:33.169Z,19.95
2022-09-06T05:07:06.781Z,19.97
2022-09-06T05:09:34.989Z,19.96
2022-09-06T05:12:02.017Z,19.99
2022-09-06T05:14:29.759Z,20.00
2022-09-06T05:17:14.809Z,20.03
2022-09-06T05:36:20.907Z,20.33
2022-09-06T05:39:24.447Z,20.47
2022-09-06T05:50:06.458Z,20.91
2022-09-06T05:52:52.409Z,21.07
2022-09-06T05:55:58.891Z,21.21
2022-09-06T06:04:56.138Z,21.64
2022-09-06T06:07:26.070Z,21.77
2022-09-06T06:09:52.936Z,21.92
2022-09-06T06:12:19.906Z,22.10
2022-09-06T06:14:46.799Z,22.31
2022-09-06T06:17:13.747Z,22.44
2022-09-06T06:19:40.681Z,22.67
2022-09-06T06:22:07.553Z,22.86
2022-09-06T06:24:34.637Z,23.04
2022-09-06T06:27:01.472Z,23.27
2022-09-06T06:29:28.269Z,23.48
2022-09-06T06:31:55.091Z,23.69
2022-09-06T06:34:23.786Z,23.91
2022-09-06T06:36:50.577Z,24.15
2022-09-06T06:39:17.466Z,24.38
2022-09-06T06:41:44.296Z,24.68
2022-09-06T06:44:11.183Z,25.01
2022-09-06T06:46:39.312Z,25.42
2022-09-06T06:49:06.264Z,25.89
2022-09-06T06:51:39.214Z,26.43
2022-09-06T06:54:06.529Z,27.04
2022-09-06T06:56:40.733Z,27.68
2022-09-06T06:59:08.135Z,28.29
2022-09-06T07:01:36.258Z,28.95
2022-09-06T07:04:04.064Z,29.57
2022-09-06T07:09:20.016Z,31.03
2022-09-06T07:11:50.791Z,31.75
2022-09-06T07:14:18.831Z,32.47
2022-09-06T07:16:46.223Z,33.18
2022-09-06T07:22:04.301Z,34.52
2022-09-06T07:24:32.679Z,35.13
2022-09-06T07:29:46.218Z,36.26
2022-09-06T07:32:13.083Z,36.71
2022-09-06T07:34:39.935Z,37.21
2022-09-06T07:37:06.759Z,37.77
2022-09-06T07:39:33.679Z,38.35
2022-09-06T07:42:01.423Z,38.91
2022-09-06T07:44:29.211Z,39.47
2022-09-06T07:55:17.136Z,41.30
2022-09-06T07:57:43.955Z,41.59
2022-09-06T08:00:12.422Z,41.91
2022-09-06T08:02:40.905Z,42.17
2022-09-06T08:10:42.199Z,42.87
2022-09-06T08:13:08.971Z,43.03
2022-09-06T08:15:35.734Z,43.12
2022-09-06T08:18:02.550Z,43.24
2022-09-06T08:20:29.478Z,43.35
2022-09-06T08:22:56.317Z,43.51
2022-09-06T08:25:23.444Z,43.69
2022-09-06T08:27:50.436Z,43.95
2022-09-06T08:30:17.319Z,44.23
2022-09-06T08:32:44.127Z,44.55
2022-09-06T08:35:11.071Z,44.81
2022-09-06T08:37:37.872Z,45.11
2022-09-06T08:40:05.037Z,45.48
2022-09-06T08:42:32.359Z,45.84
2022-09-06T08:45:00.499Z,46.20
2022-09-06T08:47:27.592Z,46.44
2022-09-06T08:50:06.492Z,46.60
2022-09-06T08:53:17.344Z,46.90
2022-09-06T08:55:58.827Z,47.26
2022-09-06T08:58:50.178Z,47.64
2022-09-06T09:01:32.053Z,48.05
2022-09-06T09:04:05.402Z,48.44
2022-09-06T09:06:33.659Z,48.73
2022-09-06T09:09:13.827Z,49.04
2022-09-06T09:11:47.379Z,49.23
2022-09-06T09:14:38.924Z,49.42
2022-09-06T09:17:24.885Z,49.57
2022-09-06T09:19:51.723Z,49.79
2022-09-06T09:22:20.325Z,50.02
2022-09-06T09:24:51.758Z,50.29
2022-09-06T09:27:24.541Z,50.57
2022-09-06T09:32:45.154Z,51.11
2022-09-06T09:35:36.587Z,51.35
2022-09-06T09:38:21.368Z,51.54
2022-09-06T09:40:55.306Z,51.65
2022-09-06T09:43:37.052Z,51.67
2022-09-06T09:46:30.428Z,51.53
2022-09-06T09:49:29.831Z,51.47
2022-09-06T09:52:16.129Z,51.38
2022-09-06T09:54:46.888Z,51.38
2022-09-06T09:57:20.248Z,51.44
2022-09-06T09:59:57.296Z,51.46
2022-09-06T10:02:35.962Z,51.49
2022-09-06T10:05:16.950Z,51.53
2022-09-06T10:07:53.577Z,51.55
2022-09-06T10:10:42.882Z,51.47
2022-09-06T10:13:31.539Z,51.29
2022-09-06T10:16:00.547Z,51.09
2022-09-06T10:18:43.705Z,50.84
2022-09-06T10:21:19.381Z,50.76
2022-09-06T10:24:50.412Z,50.71
2022-09-06T10:27:26.864Z,50.82
2022-09-06T10:30:08.526Z,50.78
2022-09-06T10:33:13.795Z,50.71
2022-09-06T10:35:41.870Z,50.72
2022-09-06T10:38:36.618Z,50.72
2022-09-06T10:41:33.824Z,50.77
2022-09-06T10:44:27.896Z,50.86
2022-09-06T10:47:10.870Z,50.95
2022-09-06T10:49:42.972Z,51.00
2022-09-06T10:52:19.151Z,50.99
2022-09-06T10:54:47.332Z,51.01
2022-09-06T11:00:48.899Z,51.06
2022-09-06T11:06:29.737Z,51.08
2022-09-06T11:09:18.082Z,51.00
2022-09-06T11:12:01.921Z,50.93
2022-09-06T11:14:30.396Z,50.82
2022-09-06T11:17:15.720Z,50.67
2022-09-06T11:19:49.503Z,50.57
2022-09-06T11:22:48.058Z,50.42
2022-09-06T11:25:56.461Z,50.29
2022-09-06T11:28:45.868Z,50.11
2022-09-06T11:34:22.761Z,49.76
2022-09-06T11:36:55.276Z,49.59
2022-09-06T11:42:42.369Z,49.07
2022-09-06T11:45:12.077Z,48.89
2022-09-06T11:47:50.869Z,48.63
2022-09-06T11:50:20.445Z,48.39
2022-09-06T11:52:59.553Z,48.10
2022-09-06T11:55:42.231Z,47.80
2022-09-06T11:58:26.806Z,47.49
2022-09-06T12:01:12.299Z,47.11
2022-09-06T12:04:07.232Z,46.76
2022-09-06T12:06:40.758Z,46.36
2022-09-06T12:09:30.750Z,45.93
2022-09-06T12:11:59.161Z,45.62
2022-09-06T12:14:34.579Z,45.30
2022-09-06T12:17:01.908Z,45.02
2022-09-06T12:20:07.627Z,44.65
2022-09-06T12:22:35.910Z,44.42
2022-09-06T12:25:41.204Z,44.08
2022-09-06T12:28:24.222Z,43.90
2022-09-06T12:30:51.502Z,43.69
2022-09-06T12:33:32.117Z,43.45
2022-09-06T12:36:22.667Z,43.25
2022-09-06T12:39:01.689Z,43.04
2022-09-06T12:41:43.302Z,42.84
2022-09-06T12:44:13.275Z,42.70
2022-09-06T12:46:54.454Z,42.49
2022-09-06T12:49:23.488Z,42.30
2022-09-06T12:51:50.951Z,42.13
2022-09-06T12:54:26.446Z,41.91
2022-09-06T12:57:12.063Z,41.67
2022-09-06T12:59:47.869Z,41.51
2022-09-06T13:02:23.970Z,41.35
2022-09-06T13:05:12.584Z,41.15
2022-09-06T13:07:45.720Z,41.05
2022-09-06T13:10:19.234Z,40.94
2022-09-06T13:12:50.407Z,40.81
2022-09-06T13:15:29.035Z,40.72
2022-09-06T13:18:23.843Z,40.57
2022-09-06T13:21:04.681Z,40.51
2022-09-06T13:23:45.940Z,40.44
2022-09-06T13:26:13.401Z,40.40
2022-09-06T13:28:40.905Z,40.39
2022-09-06T13:31:19.790Z,40.32
2022-09-06T13:33:58.141Z,40.21
2022-09-06T13:36:32.023Z,40.18
2022-09-06T13:39:00.628Z,40.08
2022-09-06T13:41:27.618Z,39.98
2022-09-06T13:44:00.293Z,39.85
2022-09-06T13:46:27.585Z,39.72
2022-09-06T13:48:56.099Z,39.62
2022-09-06T13:51:24.140Z,39.56
2022-09-06T13:53:51.304Z,39.50
2022-09-06T13:56:18.115Z,39.45
2022-09-06T13:58:45.228Z,39.41
2022-09-06T14:01:14.220Z,39.34
2022-09-06T14:03:42.721Z,39.24
2022-09-06T14:06:10.517Z,39.10
2022-09-06T14:09:05.882Z,38.91
2022-09-06T14:11:27.804Z,38.66
2022-09-06T14:13:54.993Z,38.42
2022-09-06T14:16:21.972Z,38.16
2022-09-06T14:18:48.936Z,37.91
2022-09-06T14:21:16.503Z,37.59
2022-09-06T14:23:43.358Z,37.27
2022-09-06T14:26:10.542Z,36.99
2022-09-06T14:28:37.289Z,36.73
2022-09-06T14:31:17.017Z,36.49
2022-09-06T14:33:43.994Z,36.34
2022-09-06T14:36:15.112Z,36.20
2022-09-06T14:38:44.424Z,36.01
2022-09-06T14:41:15.584Z,35.88
2022-09-06T14:43:44.460Z,35.81
2022-09-06T14:46:14.985Z,35.79
2022-09-06T14:48:43.200Z,35.75
2022-09-06T14:51:21.912Z,35.72
2022-09-06T14:53:52.944Z,35.66
2022-09-06T14:56:21.031Z,35.58
2022-09-06T14:58:47.978Z,35.47
2022-09-06T15:01:16.008Z,35.38
2022-09-06T15:03:48.457Z,35.32
2022-09-06T15:06:16.708Z,35.27
2022-09-06T15:08:44.053Z,35.24
2022-09-06T15:11:12.554Z,35.21
2022-09-06T15:13:40.540Z,35.16
2022-09-06T15:16:09.905Z,35.07
2022-09-06T15:18:37.019Z,34.97
2022-09-06T15:21:16.824Z,34.84
2022-09-06T15:23:44.016Z,34.78
2022-09-06T15:26:14.078Z,34.77
2022-09-06T15:28:45.908Z,34.74
2022-09-06T15:31:15.076Z,34.75
2022-09-06T15:33:41.964Z,34.71
2022-09-06T15:36:10.463Z,34.68
2022-09-06T15:38:42.222Z,34.62
2022-09-06T15:41:27.069Z,34.53
2022-09-06T15:43:58.073Z,34.45
2022-09-06T15:46:38.362Z,34.42
2022-09-06T15:49:07.992Z,34.42
2022-09-06T15:51:38.828Z,34.41
2022-09-06T15:54:06.940Z,34.45
2022-09-06T15:56:34.729Z,34.46
2022-09-06T15:59:01.505Z,34.45
2022-09-06T16:01:28.843Z,34.38
2022-09-06T16:04:03.381Z,34.37
2022-09-06T16:06:35.562Z,34.29
2022-09-06T16:09:14.230Z,34.19
2022-09-06T16:11:42.051Z,34.13
2022-09-06T16:14:13.842Z,34.09
2022-09-06T16:16:42.312Z,34.04
2022-09-06T16:19:11.483Z,34.00
2022-09-06T16:21:41.725Z,33.93
2022-09-06T16:24:12.879Z,33.87
2022-09-06T16:26:44.042Z,33.80
2022-09-06T16:29:14.083Z,33.74
2022-09-06T16:31:41.490Z,33.68
2022-09-06T16:34:10.059Z,33.59
2022-09-06T16:36:37.785Z,33.54
2022-09-06T16:39:05.490Z,33.49
2022-09-06T16:41:42.619Z,33.42
2022-09-06T16:44:16.741Z,33.37
2022-09-06T16:46:46.685Z,33.30
2022-09-06T16:49:16.695Z,33.26
2022-09-06T16:51:44.034Z,33.24
2022-09-06T16:54:14.424Z,33.20
2022-09-06T16:56:41.907Z,33.19
2022-09-06T16:59:12.171Z,33.17
2022-09-06T17:01:43.695Z,33.16
2022-09-06T17:04:12.758Z,33.12
2022-09-06T17:06:44.859Z,33.10
2022-09-06T17:09:20.409Z,33.05
2022-09-06T17:11:51.361Z,32.97
2022-09-06T17:14:19.571Z,32.93
2022-09-06T17:17:05.530Z,32.87
2022-09-06T17:19:47.849Z,32.80
2022-09-06T17:22:15.520Z,32.75
2022-09-06T17:24:43.517Z,32.69
2022-09-06T17:27:10.903Z,32.63
2022-09-06T17:29:40.876Z,32.58
2022-09-06T17:32:10.695Z,32.52
2022-09-06T17:34:42.712Z,32.45
2022-09-06T17:37:19.965Z,32.34
2022-09-06T17:39:50.309Z,32.24
2022-09-06T17:42:27.532Z,32.15
2022-09-06T17:44:54.880Z,32.06
2022-09-06T17:47:21.980Z,31.99
2022-09-06T17:49:56.723Z,31.93
2022-09-06T17:52:27.319Z,31.85
2022-09-06T17:54:55.392Z,31.78
2022-09-06T17:57:26.891Z,31.67
2022-09-06T18:00:03.487Z,31.59
2022-09-06T18:02:42.492Z,31.50
2022-09-06T18:05:20.316Z,31.43
2022-09-06T18:07:59.659Z,31.37
2022-09-06T18:10:39.407Z,31.32
2022-09-06T18:13:31.197Z,31.24
2022-09-06T18:16:33.634Z,31.16
2022-09-06T18:19:13.609Z,31.12
2022-09-06T18:21:50.754Z,31.08
2022-09-06T18:24:18.255Z,31.05
2022-09-06T18:27:17.747Z,31.01
2022-09-06T18:29:54.663Z,30.98
2022-09-06T18:32:34.208Z,30.90
2022-09-06T18:35:14.956Z,30.82
2022-09-06T18:37:43.046Z,30.69
2022-09-06T18:40:26.575Z,30.59
2022-09-06T18:43:18.696Z,30.44
2022-09-06T18:45:46.579Z,30.38
2022-09-06T18:48:14.483Z,30.33
2022-09-06T18:50:41.370Z,30.26
2022-09-06T18:53:09.003Z,30.17
2022-09-06T18:55:42.647Z,30.08
2022-09-06T18:58:14.172Z,29.97
2022-09-06T19:00:41.468Z,29.87
2022-09-06T19:03:08.625Z,29.77
2022-09-06T19:05:38.602Z,29.71
2022-09-06T19:08:05.790Z,29.61
2022-09-06T19:10:32.555Z,29.55
2022-09-06T19:12:59.413Z,29.48
2022-09-06T19:15:26.541Z,29.40
2022-09-06T19:17:53.729Z,29.33
2022-09-06T19:20:21.664Z,29.24
2022-09-06T19:22:51.758Z,29.16
2022-09-06T19:25:19.212Z,29.08
2022-09-06T19:27:48.779Z,29.02
2022-09-06T19:30:16.009Z,28.95
2022-09-06T19:32:42.921Z,28.90
2022-09-06T19:35:09.907Z,28.88
2022-09-06T19:37:36.843Z,28.83
2022-09-06T19:40:04.353Z,28.79
2022-09-06T19:42:31.262Z,28.71
2022-09-06T19:44:58.128Z,28.61
2022-09-06T19:47:25.055Z,28.51
2022-09-06T19:49:51.980Z,28.44
2022-09-06T19:52:19.094Z,28.39
2022-09-06T19:54:46.336Z,28.33
2022-09-06T19:57:13.136Z,28.25
2022-09-06T19:59:40.417Z,28.20
2022-09-06T20:02:08.686Z,28.15
2022-09-06T20:04:35.591Z,28.09
2022-09-06T20:07:03.273Z,28.06
2022-09-06T20:09:30.145Z,28.04
2022-09-06T20:11:57.015Z,28.05
2022-09-06T20:14:24.948Z,28.06
2022-09-06T20:16:52.778Z,28.08
2022-09-06T20:19:19.850Z,28.06
2022-09-06T20:21:46.886Z,28.04
2022-09-06T20:24:14.093Z,28.01
2022-09-06T20:26:41.048Z,27.97
2022-09-06T20:29:10.260Z,27.91
2022-09-06T20:31:38.533Z,27.85
2022-09-06T20:34:06.672Z,27.85
2022-09-06T20:36:33.881Z,27.81
2022-09-06T20:39:04.758Z,27.80
2022-09-06T20:41:32.435Z,27.79
2022-09-06T20:44:00.008Z,27.77
2022-09-06T20:46:35.698Z,27.74
2022-09-06T20:49:05.123Z,27.68
2022-09-06T20:51:34.849Z,27.68
2022-09-06T20:54:04.469Z,27.65
2022-09-06T20:56:36.532Z,27.60
2022-09-06T20:59:08.629Z,27.56
2022-09-06T21:01:53.898Z,27.50
2022-09-06T21:04:22.057Z,27.49
2022-09-06T21:06:51.032Z,27.46
2022-09-06T21:09:20.446Z,27.42
2022-09-06T21:11:47.616Z,27.37
2022-09-06T21:14:16.822Z,27.33
2022-09-06T21:16:44.377Z,27.28
2022-09-06T21:19:12.600Z,27.21
2022-09-06T21:21:40.908Z,27.12
2022-09-06T21:24:10.114Z,27.03
2022-09-06T21:26:38.273Z,26.94
2022-09-06T21:29:06.104Z,26.87
2022-09-06T21:31:36.381Z,26.79
2022-09-06T21:34:16.173Z,26.72
2022-09-06T21:36:44.505Z,26.57
2022-09-06T21:39:14.797Z,26.38
2022-09-06T21:41:43.761Z,26.10
2022-09-06T21:44:11.236Z,25.75
2022-09-06T21:46:39.961Z,25.44
2022-09-06T21:49:10.381Z,25.08
2022-09-06T21:51:38.677Z,24.78
2022-09-06T21:54:06.871Z,24.39
2022-09-06T21:56:36.218Z,24.08
2022-09-06T21:59:04.887Z,23.74
2022-09-06T22:01:35.255Z,23.46
2022-09-06T22:04:03.234Z,23.22
2022-09-06T22:06:33.429Z,23.01
2022-09-06T22:09:05.165Z,22.86
2022-09-06T22:11:34.566Z,22.67
2022-09-06T22:14:05.678Z,22.49
2022-09-06T22:16:35.991Z,22.33
2022-09-06T22:19:05.169Z,22.23
2022-09-06T22:21:33.346Z,22.15
2022-09-06T22:24:04.338Z,22.10
2022-09-06T22:26:34.855Z,22.08
2022-09-06T22:29:05.733Z,22.06
2022-09-06T22:31:34.827Z,22.05
2022-09-06T22:34:02.443Z,22.03
2022-09-06T22:36:29.830Z,22.01
2022-09-06T22:38:57.715Z,21.94
2022-09-06T22:41:30.980Z,21.79
2022-09-06T22:44:00.805Z,21.67
2022-09-06T22:46:28.124Z,21.58
2022-09-06T22:48:55.533Z,21.51
2022-09-06T22:51:22.659Z,21.50
2022-09-06T22:53:49.875Z,21.46
2022-09-06T22:56:17.037Z,21.47
2022-09-06T22:58:43.966Z,21.45
2022-09-06T23:01:14.063Z,21.48
2022-09-06T23:03:42.152Z,21.51
2022-09-06T23:06:10.143Z,21.56
2022-09-06T23:08:39.675Z,21.57
2022-09-06T23:11:15.416Z,21.60
2022-09-06T23:13:44.098Z,21.59
2022-09-06T23:16:18.861Z,21.57
2022-09-06T23:18:46.962Z,21.57
2022-09-06T23:21:24.269Z,21.62
2022-09-06T23:23:53.457Z,21.60
2022-09-06T23:26:30.036Z,21.61
2022-09-06T23:28:57.115Z,21.64
2022-09-06T23:31:27.125Z,21.63
2022-09-06T23:33:59.130Z,21.63
2022-09-06T23:36:27.460Z,21.63
2022-09-06T23:38:54.801Z,21.65
2022-09-06T23:41:22.074Z,21.64
2022-09-06T23:43:49.530Z,21.63
2022-09-06T23:46:17.004Z,21.62
2022-09-06T23:48:44.552Z,21.61
2022-09-06T23:51:12.474Z,21.63
2022-09-06T23:53:43.205Z,21.63
2022-09-06T23:56:11.073Z,21.66
2022-09-06T23:58:38.832Z,21.68
